ARG1987 SAVT-SAEZ
Flight info
| Callsign | ARG1987 |
|---|---|
| Flight time | 1h 27m |
| Altitude | 37000 |
| Route | LOMUS2K LOMUS UT693 BCA UW22 VALOS VALOS8U |
| Aircraft | B738/M-SDE2E3FGHIRWXY/LB1 |
Departure
| Time | 2026-05-06 02:48 |
|---|---|
| Airport | Almirante Marco Andres Zar Airport (SAVT) |
Arrival
| Time | 2026-05-06 04:15 |
|---|---|
| Airport | Ezeiza International Airport - Ministro Pistarini (SAEZ) |
| Time | Latitude | Longitude | Altitude | Speed | Heading |
|---|---|---|---|---|---|
| 2026-05-06 02:47 | -43.14193 | -65.12996 | 5396 ft | 251 kts | 16° |
| 2026-05-06 02:48 | -43.12493 | -65.12258 | 6117 ft | 260 kts | 16° |
| 2026-05-06 02:48 | -43.10764 | -65.11500 | 6912 ft | 264 kts | 16° |
| 2026-05-06 02:48 | -43.09001 | -65.10713 | 7680 ft | 269 kts | 16° |
| 2026-05-06 02:48 | -43.07203 | -65.09896 | 8442 ft | 275 kts | 16° |
| 2026-05-06 02:49 | -43.05368 | -65.09053 | 9213 ft | 281 kts | 16° |
| 2026-05-06 02:49 | -43.03503 | -65.08188 | 9966 ft | 286 kts | 16° |
| 2026-05-06 02:49 | -43.01580 | -65.07292 | 10423 ft | 302 kts | 16° |
| 2026-05-06 02:49 | -42.99506 | -65.06324 | 10603 ft | 326 kts | 16° |
| 2026-05-06 02:50 | -42.97314 | -65.05297 | 11040 ft | 339 kts | 16° |
| 2026-05-06 02:50 | -42.95065 | -65.04237 | 11756 ft | 342 kts | 15° |
| 2026-05-06 02:50 | -42.92815 | -65.03174 | 12537 ft | 344 kts | 15° |
| 2026-05-06 02:50 | -42.90534 | -65.02099 | 13247 ft | 349 kts | 15° |
| 2026-05-06 02:51 | -42.88226 | -65.01012 | 13946 ft | 353 kts | 15° |
| 2026-05-06 02:51 | -42.85893 | -64.99914 | 14582 ft | 357 kts | 14° |
| 2026-05-06 02:51 | -42.83530 | -64.98804 | 15177 ft | 362 kts | 14° |
| 2026-05-06 02:51 | -42.81132 | -64.97678 | 15765 ft | 367 kts | 14° |
| 2026-05-06 02:52 | -42.78702 | -64.96538 | 16359 ft | 372 kts | 14° |
| 2026-05-06 02:52 | -42.76245 | -64.95386 | 16958 ft | 376 kts | 14° |
| 2026-05-06 02:52 | -42.73749 | -64.94216 | 17543 ft | 381 kts | 14° |
| 2026-05-06 02:52 | -42.71200 | -64.93021 | 18159 ft | 385 kts | 14° |
| 2026-05-06 02:53 | -42.68654 | -64.91830 | 18670 ft | 389 kts | 13° |
| 2026-05-06 02:53 | -42.66085 | -64.90630 | 19217 ft | 392 kts | 13° |
| 2026-05-06 02:53 | -42.63511 | -64.89633 | 19751 ft | 388 kts | 2° |
| 2026-05-06 02:53 | -42.61704 | -64.89368 | 20130 ft | 385 kts | 358° |
| 2026-05-06 02:54 | -42.60159 | -64.89231 | 20463 ft | 386 kts | 357° |
| 2026-05-06 02:54 | -42.57470 | -64.89038 | 21011 ft | 388 kts | 356° |
| 2026-05-06 02:54 | -42.54767 | -64.88842 | 21540 ft | 391 kts | 356° |
| 2026-05-06 02:54 | -42.52042 | -64.88620 | 22027 ft | 394 kts | 358° |
| 2026-05-06 02:55 | -42.49298 | -64.88371 | 22563 ft | 396 kts | 358° |
| 2026-05-06 02:55 | -42.46541 | -64.88105 | 23090 ft | 398 kts | 358° |
| 2026-05-06 02:55 | -42.43770 | -64.87830 | 23584 ft | 400 kts | 358° |
| 2026-05-06 02:55 | -42.40953 | -64.87548 | 24011 ft | 402 kts | 358° |
| 2026-05-06 02:56 | -42.38191 | -64.87271 | 24458 ft | 403 kts | 358° |
| 2026-05-06 02:56 | -42.35392 | -64.86992 | 24903 ft | 404 kts | 357° |
| 2026-05-06 02:56 | -42.32585 | -64.86699 | 25322 ft | 407 kts | 360° |
| 2026-05-06 02:56 | -42.29796 | -64.85738 | 25655 ft | 425 kts | 18° |
| 2026-05-06 02:57 | -42.27136 | -64.83898 | 26012 ft | 431 kts | 20° |
| 2026-05-06 02:57 | -42.24473 | -64.82014 | 26363 ft | 434 kts | 20° |
| 2026-05-06 02:57 | -42.21788 | -64.80124 | 26726 ft | 436 kts | 20° |
| 2026-05-06 02:57 | -42.19089 | -64.78239 | 27105 ft | 438 kts | 19° |
| 2026-05-06 02:58 | -42.16379 | -64.76361 | 27469 ft | 439 kts | 19° |
| 2026-05-06 02:58 | -42.13613 | -64.74456 | 27823 ft | 441 kts | 19° |
| 2026-05-06 02:58 | -42.10871 | -64.72576 | 28131 ft | 444 kts | 18° |
| 2026-05-06 02:58 | -42.08104 | -64.70686 | 28304 ft | 450 kts | 18° |
| 2026-05-06 02:59 | -42.05299 | -64.68772 | 28614 ft | 452 kts | 18° |
| 2026-05-06 02:59 | -42.02492 | -64.66855 | 28988 ft | 453 kts | 18° |
| 2026-05-06 02:59 | -41.99683 | -64.64938 | 29325 ft | 454 kts | 18° |
| 2026-05-06 02:59 | -41.96856 | -64.63011 | 29615 ft | 456 kts | 18° |
| 2026-05-06 03:00 | -41.94022 | -64.61082 | 29889 ft | 458 kts | 18° |
| 2026-05-06 03:00 | -41.91173 | -64.59145 | 30169 ft | 460 kts | 18° |
| 2026-05-06 03:00 | -41.88307 | -64.57198 | 30379 ft | 462 kts | 18° |
| 2026-05-06 03:00 | -41.85438 | -64.55250 | 30625 ft | 463 kts | 18° |
| 2026-05-06 03:01 | -41.82563 | -64.53300 | 30898 ft | 464 kts | 18° |
| 2026-05-06 03:01 | -41.79702 | -64.51359 | 31259 ft | 462 kts | 18° |
| 2026-05-06 03:01 | -41.76835 | -64.49415 | 31678 ft | 459 kts | 17° |
| 2026-05-06 03:01 | -41.73986 | -64.47485 | 32085 ft | 457 kts | 17° |
| 2026-05-06 03:02 | -41.71156 | -64.45573 | 32426 ft | 455 kts | 17° |
| 2026-05-06 03:02 | -41.68345 | -64.43677 | 32740 ft | 455 kts | 17° |
| 2026-05-06 03:02 | -41.65517 | -64.41772 | 33071 ft | 453 kts | 17° |
| 2026-05-06 03:02 | -41.62708 | -64.39882 | 33379 ft | 453 kts | 16° |
| 2026-05-06 03:03 | -41.59895 | -64.37991 | 33687 ft | 452 kts | 16° |
| 2026-05-06 03:03 | -41.57090 | -64.36106 | 34027 ft | 450 kts | 16° |
| 2026-05-06 03:03 | -41.54294 | -64.34229 | 34222 ft | 451 kts | 16° |
| 2026-05-06 03:04 | -41.48640 | -64.30448 | 34483 ft | 456 kts | 16° |
| 2026-05-06 03:04 | -41.45816 | -64.28557 | 34732 ft | 455 kts | 16° |
| 2026-05-06 03:04 | -41.42983 | -64.26661 | 34919 ft | 455 kts | 16° |
| 2026-05-06 03:04 | -41.40149 | -64.24766 | 35133 ft | 455 kts | 16° |
| 2026-05-06 03:05 | -41.37315 | -64.22874 | 35334 ft | 456 kts | 16° |
| 2026-05-06 03:05 | -41.34475 | -64.20982 | 35502 ft | 457 kts | 16° |
| 2026-05-06 03:05 | -41.31630 | -64.19087 | 35679 ft | 458 kts | 17° |
| 2026-05-06 03:05 | -41.28781 | -64.17191 | 35870 ft | 458 kts | 17° |
| 2026-05-06 03:06 | -41.25930 | -64.15296 | 36052 ft | 459 kts | 17° |
| 2026-05-06 03:06 | -41.23073 | -64.13398 | 36206 ft | 460 kts | 17° |
| 2026-05-06 03:06 | -41.20199 | -64.11490 | 36346 ft | 461 kts | 17° |
| 2026-05-06 03:06 | -41.17346 | -64.09597 | 36601 ft | 459 kts | 16° |
| 2026-05-06 03:07 | -41.14495 | -64.07708 | 36813 ft | 459 kts | 16° |
| 2026-05-06 03:07 | -41.11701 | -64.05541 | 36890 ft | 476 kts | 30° |
| 2026-05-06 03:07 | -41.09396 | -64.02257 | 36911 ft | 496 kts | 47° |
| 2026-05-06 03:08 | -41.05589 | -63.94571 | 36974 ft | 502 kts | 50° |
| 2026-05-06 03:08 | -41.01782 | -63.86816 | 36964 ft | 504 kts | 49° |
| 2026-05-06 03:09 | -40.97878 | -63.79106 | 36968 ft | 505 kts | 48° |
| 2026-05-06 03:09 | -40.93940 | -63.71402 | 36955 ft | 505 kts | 48° |
| 2026-05-06 03:10 | -40.89439 | -63.64587 | 36956 ft | 475 kts | 23° |
| 2026-05-06 03:10 | -40.86630 | -63.62426 | 36988 ft | 464 kts | 18° |
| 2026-05-06 03:10 | -40.83747 | -63.60397 | 36976 ft | 464 kts | 17° |
| 2026-05-06 03:11 | -40.78029 | -63.56422 | 36966 ft | 464 kts | 17° |
| 2026-05-06 03:11 | -40.72331 | -63.52396 | 36975 ft | 465 kts | 18° |
| 2026-05-06 03:12 | -40.66646 | -63.48326 | 36975 ft | 465 kts | 18° |
| 2026-05-06 03:12 | -40.60967 | -63.44250 | 36974 ft | 465 kts | 18° |
| 2026-05-06 03:13 | -40.55292 | -63.40186 | 36970 ft | 464 kts | 18° |
| 2026-05-06 03:13 | -40.49615 | -63.36132 | 36984 ft | 464 kts | 18° |
| 2026-05-06 03:14 | -40.43931 | -63.32082 | 36978 ft | 465 kts | 18° |
| 2026-05-06 03:14 | -40.38251 | -63.28042 | 36980 ft | 464 kts | 17° |
| 2026-05-06 03:15 | -40.32557 | -63.24000 | 36984 ft | 465 kts | 17° |
| 2026-05-06 03:15 | -40.26868 | -63.19970 | 36983 ft | 466 kts | 17° |
| 2026-05-06 03:16 | -40.21163 | -63.15936 | 36985 ft | 466 kts | 17° |
| 2026-05-06 03:16 | -40.15449 | -63.11902 | 36962 ft | 466 kts | 17° |
| 2026-05-06 03:17 | -40.09746 | -63.07884 | 36980 ft | 466 kts | 17° |
| 2026-05-06 03:17 | -40.03991 | -63.03839 | 36990 ft | 467 kts | 17° |
| 2026-05-06 03:18 | -39.99241 | -63.00505 | 36988 ft | 467 kts | 17° |
| 2026-05-06 03:18 | -39.93513 | -62.96492 | 36990 ft | 467 kts | 17° |
| 2026-05-06 03:19 | -39.87778 | -62.92482 | 36986 ft | 467 kts | 17° |
| 2026-05-06 03:19 | -39.82046 | -62.88480 | 36989 ft | 467 kts | 17° |
| 2026-05-06 03:20 | -39.73454 | -62.82497 | 36974 ft | 467 kts | 17° |
| 2026-05-06 03:20 | -39.67726 | -62.78517 | 36971 ft | 466 kts | 17° |
| 2026-05-06 03:21 | -39.62005 | -62.74550 | 36986 ft | 466 kts | 17° |
| 2026-05-06 03:21 | -39.56291 | -62.70595 | 36989 ft | 466 kts | 17° |
| 2026-05-06 03:22 | -39.50571 | -62.66643 | 36989 ft | 466 kts | 17° |
| 2026-05-06 03:22 | -39.44824 | -62.62821 | 36952 ft | 464 kts | 15° |
| 2026-05-06 03:23 | -39.39065 | -62.59097 | 36984 ft | 463 kts | 15° |
| 2026-05-06 03:23 | -39.33302 | -62.55367 | 36991 ft | 463 kts | 15° |
| 2026-05-06 03:24 | -39.27545 | -62.51629 | 36981 ft | 463 kts | 15° |
| 2026-05-06 03:24 | -39.21790 | -62.47891 | 36996 ft | 464 kts | 15° |
| 2026-05-06 03:25 | -39.16029 | -62.44155 | 36987 ft | 464 kts | 15° |
| 2026-05-06 03:25 | -39.10254 | -62.40420 | 36991 ft | 465 kts | 15° |
| 2026-05-06 03:26 | -39.04466 | -62.36682 | 36998 ft | 466 kts | 15° |
| 2026-05-06 03:26 | -38.98663 | -62.32942 | 36984 ft | 467 kts | 15° |
| 2026-05-06 03:27 | -38.92862 | -62.29208 | 36991 ft | 467 kts | 15° |
| 2026-05-06 03:27 | -38.87027 | -62.25460 | 36991 ft | 468 kts | 15° |
| 2026-05-06 03:28 | -38.81245 | -62.21752 | 36976 ft | 469 kts | 15° |
| 2026-05-06 03:28 | -38.75365 | -62.17988 | 36993 ft | 469 kts | 15° |
| 2026-05-06 03:29 | -38.69618 | -62.13911 | 36990 ft | 481 kts | 24° |
| 2026-05-06 03:29 | -38.64332 | -62.09074 | 36990 ft | 484 kts | 26° |
| 2026-05-06 03:30 | -38.58896 | -62.03998 | 36988 ft | 484 kts | 26° |
| 2026-05-06 03:30 | -38.53435 | -61.98991 | 36990 ft | 483 kts | 25° |
| 2026-05-06 03:31 | -38.47947 | -61.94026 | 36985 ft | 483 kts | 25° |
| 2026-05-06 03:31 | -38.42468 | -61.89089 | 36973 ft | 481 kts | 25° |
| 2026-05-06 03:32 | -38.37001 | -61.84170 | 36983 ft | 481 kts | 25° |
| 2026-05-06 03:32 | -38.31539 | -61.79262 | 36999 ft | 481 kts | 25° |
| 2026-05-06 03:33 | -38.26072 | -61.74358 | 36993 ft | 480 kts | 25° |
| 2026-05-06 03:33 | -38.20610 | -61.69468 | 37002 ft | 480 kts | 25° |
| 2026-05-06 03:34 | -38.15142 | -61.64581 | 36983 ft | 480 kts | 25° |
| 2026-05-06 03:34 | -38.09668 | -61.59697 | 36991 ft | 481 kts | 25° |
| 2026-05-06 03:35 | -38.04192 | -61.54820 | 37003 ft | 481 kts | 25° |
| 2026-05-06 03:35 | -37.98662 | -61.49905 | 37005 ft | 482 kts | 25° |
| 2026-05-06 03:36 | -37.93182 | -61.45047 | 37006 ft | 483 kts | 25° |
| 2026-05-06 03:36 | -37.87666 | -61.40171 | 37002 ft | 483 kts | 25° |
| 2026-05-06 03:37 | -37.82145 | -61.35297 | 37006 ft | 484 kts | 25° |
| 2026-05-06 03:37 | -37.76609 | -61.30418 | 36994 ft | 485 kts | 25° |
| 2026-05-06 03:38 | -37.71068 | -61.25542 | 37001 ft | 486 kts | 25° |
| 2026-05-06 03:38 | -37.65509 | -61.20659 | 37001 ft | 486 kts | 25° |
| 2026-05-06 03:39 | -37.59950 | -61.15786 | 36997 ft | 487 kts | 25° |
| 2026-05-06 03:39 | -37.54367 | -61.10901 | 36999 ft | 487 kts | 25° |
| 2026-05-06 03:40 | -37.48788 | -61.06028 | 37003 ft | 488 kts | 25° |
| 2026-05-06 03:40 | -37.43194 | -61.01152 | 36995 ft | 489 kts | 25° |
| 2026-05-06 03:41 | -37.37609 | -60.96291 | 36999 ft | 489 kts | 25° |
| 2026-05-06 03:41 | -37.32008 | -60.91426 | 36998 ft | 489 kts | 25° |
| 2026-05-06 03:42 | -37.26401 | -60.86564 | 36997 ft | 489 kts | 25° |
| 2026-05-06 03:42 | -37.20791 | -60.81709 | 36996 ft | 489 kts | 25° |
| 2026-05-06 03:43 | -37.15213 | -60.76891 | 37000 ft | 489 kts | 25° |
| 2026-05-06 03:43 | -37.09601 | -60.72052 | 36993 ft | 489 kts | 24° |
| 2026-05-06 03:44 | -37.04001 | -60.67231 | 36996 ft | 488 kts | 24° |
| 2026-05-06 03:44 | -36.98390 | -60.62411 | 37006 ft | 488 kts | 24° |
| 2026-05-06 03:45 | -36.92789 | -60.57610 | 37001 ft | 488 kts | 24° |
| 2026-05-06 03:45 | -36.87183 | -60.52811 | 37008 ft | 489 kts | 24° |
| 2026-05-06 03:46 | -36.81588 | -60.48031 | 36999 ft | 489 kts | 24° |
| 2026-05-06 03:46 | -36.75971 | -60.43240 | 36999 ft | 489 kts | 24° |
| 2026-05-06 03:47 | -36.70335 | -60.38442 | 37010 ft | 491 kts | 24° |
| 2026-05-06 03:47 | -36.64688 | -60.33643 | 37007 ft | 492 kts | 24° |
| 2026-05-06 03:48 | -36.61817 | -60.31214 | 36023 ft | 506 kts | 25° |
| 2026-05-06 03:48 | -36.58920 | -60.28754 | 35491 ft | 502 kts | 25° |
| 2026-05-06 03:48 | -36.56039 | -60.26306 | 34996 ft | 499 kts | 26° |
| 2026-05-06 03:48 | -36.53226 | -60.23918 | 34558 ft | 494 kts | 26° |
| 2026-05-06 03:49 | -36.50388 | -60.21518 | 34106 ft | 489 kts | 26° |
| 2026-05-06 03:49 | -36.47593 | -60.19165 | 33646 ft | 484 kts | 26° |
| 2026-05-06 03:49 | -36.44814 | -60.16834 | 33160 ft | 479 kts | 26° |
| 2026-05-06 03:49 | -36.42064 | -60.14531 | 32753 ft | 474 kts | 26° |
| 2026-05-06 03:50 | -36.39346 | -60.12257 | 32322 ft | 469 kts | 26° |
| 2026-05-06 03:50 | -36.36646 | -60.09999 | 31899 ft | 465 kts | 26° |
| 2026-05-06 03:50 | -36.33973 | -60.07766 | 31485 ft | 461 kts | 26° |
| 2026-05-06 03:50 | -36.31320 | -60.05551 | 31070 ft | 457 kts | 26° |
| 2026-05-06 03:51 | -36.28691 | -60.03358 | 30664 ft | 454 kts | 26° |
| 2026-05-06 03:51 | -36.26077 | -60.01179 | 30259 ft | 451 kts | 26° |
| 2026-05-06 03:51 | -36.23470 | -59.99007 | 29794 ft | 448 kts | 26° |
| 2026-05-06 03:51 | -36.20902 | -59.96869 | 29340 ft | 444 kts | 26° |
| 2026-05-06 03:52 | -36.18375 | -59.94766 | 28915 ft | 440 kts | 26° |
| 2026-05-06 03:52 | -36.15845 | -59.92661 | 28486 ft | 436 kts | 26° |
| 2026-05-06 03:52 | -36.13304 | -59.90550 | 28041 ft | 433 kts | 26° |
| 2026-05-06 03:52 | -36.10846 | -59.88510 | 27622 ft | 429 kts | 26° |
| 2026-05-06 03:53 | -36.08378 | -59.86462 | 27215 ft | 425 kts | 26° |
| 2026-05-06 03:53 | -36.05933 | -59.84437 | 26814 ft | 422 kts | 26° |
| 2026-05-06 03:53 | -36.03496 | -59.82418 | 26409 ft | 419 kts | 26° |
| 2026-05-06 03:53 | -36.01086 | -59.80425 | 26010 ft | 416 kts | 27° |
| 2026-05-06 03:54 | -35.98692 | -59.78445 | 25608 ft | 413 kts | 27° |
| 2026-05-06 03:54 | -35.96306 | -59.76474 | 25186 ft | 411 kts | 27° |
| 2026-05-06 03:54 | -35.93925 | -59.74509 | 24786 ft | 409 kts | 27° |
| 2026-05-06 03:54 | -35.91572 | -59.72568 | 24399 ft | 406 kts | 27° |
| 2026-05-06 03:55 | -35.89229 | -59.70637 | 23987 ft | 405 kts | 27° |
| 2026-05-06 03:55 | -35.86884 | -59.68706 | 23581 ft | 403 kts | 27° |
| 2026-05-06 03:55 | -35.84556 | -59.66789 | 23109 ft | 402 kts | 27° |
| 2026-05-06 03:55 | -35.82228 | -59.64873 | 22680 ft | 399 kts | 27° |
| 2026-05-06 03:56 | -35.80708 | -59.63623 | 22403 ft | 397 kts | 27° |
| 2026-05-06 03:56 | -35.78417 | -59.61739 | 21997 ft | 394 kts | 28° |
| 2026-05-06 03:56 | -35.76154 | -59.59881 | 21594 ft | 391 kts | 28° |
| 2026-05-06 03:56 | -35.73890 | -59.58022 | 21196 ft | 388 kts | 28° |
| 2026-05-06 03:57 | -35.70925 | -59.55591 | 20677 ft | 385 kts | 28° |
| 2026-05-06 03:57 | -35.69427 | -59.54363 | 20418 ft | 383 kts | 28° |
| 2026-05-06 03:57 | -35.66496 | -59.51964 | 19895 ft | 380 kts | 28° |
| 2026-05-06 03:57 | -35.65010 | -59.50748 | 19637 ft | 379 kts | 28° |
| 2026-05-06 03:58 | -35.62821 | -59.48958 | 19252 ft | 377 kts | 28° |
| 2026-05-06 03:58 | -35.60646 | -59.47180 | 18858 ft | 375 kts | 28° |
| 2026-05-06 03:58 | -35.58474 | -59.45406 | 18475 ft | 374 kts | 29° |
| 2026-05-06 03:58 | -35.56308 | -59.43639 | 18039 ft | 373 kts | 29° |
| 2026-05-06 03:59 | -35.54153 | -59.41880 | 17623 ft | 370 kts | 29° |
| 2026-05-06 03:59 | -35.52038 | -59.40155 | 17225 ft | 368 kts | 29° |
| 2026-05-06 03:59 | -35.49910 | -59.38420 | 16830 ft | 365 kts | 29° |
| 2026-05-06 03:59 | -35.47796 | -59.36699 | 16447 ft | 363 kts | 29° |
| 2026-05-06 04:00 | -35.45696 | -59.34991 | 16061 ft | 361 kts | 29° |
| 2026-05-06 04:00 | -35.43587 | -59.33350 | 15684 ft | 358 kts | 27° |
| 2026-05-06 04:00 | -35.41463 | -59.31772 | 15302 ft | 355 kts | 27° |
| 2026-05-06 04:00 | -35.39345 | -59.30216 | 14919 ft | 354 kts | 27° |
| 2026-05-06 04:01 | -35.37247 | -59.28671 | 14546 ft | 352 kts | 27° |
| 2026-05-06 04:01 | -35.35148 | -59.27121 | 14151 ft | 351 kts | 28° |
| 2026-05-06 04:01 | -35.33064 | -59.25576 | 13761 ft | 350 kts | 28° |
| 2026-05-06 04:01 | -35.30982 | -59.24029 | 13347 ft | 348 kts | 28° |
| 2026-05-06 04:02 | -35.28915 | -59.22492 | 12955 ft | 346 kts | 28° |
| 2026-05-06 04:02 | -35.26867 | -59.20970 | 12566 ft | 344 kts | 28° |
| 2026-05-06 04:02 | -35.24831 | -59.19456 | 12187 ft | 341 kts | 29° |
| 2026-05-06 04:02 | -35.22806 | -59.17953 | 11812 ft | 339 kts | 29° |
| 2026-05-06 04:03 | -35.20792 | -59.16459 | 11436 ft | 337 kts | 30° |
| 2026-05-06 04:03 | -35.18793 | -59.15042 | 11072 ft | 334 kts | 27° |
| 2026-05-06 04:03 | -35.16731 | -59.13743 | 10697 ft | 332 kts | 25° |
| 2026-05-06 04:03 | -35.14665 | -59.12488 | 10383 ft | 329 kts | 25° |
| 2026-05-06 04:04 | -35.12647 | -59.11266 | 10240 ft | 320 kts | 26° |
| 2026-05-06 04:04 | -35.10683 | -59.10071 | 10083 ft | 311 kts | 26° |
| 2026-05-06 04:04 | -35.08768 | -59.08897 | 9930 ft | 304 kts | 26° |
| 2026-05-06 04:04 | -35.06923 | -59.07762 | 9935 ft | 291 kts | 26° |
| 2026-05-06 04:05 | -35.05148 | -59.06667 | 9900 ft | 280 kts | 26° |
| 2026-05-06 04:05 | -35.03432 | -59.05607 | 9762 ft | 274 kts | 26° |
| 2026-05-06 04:05 | -35.01729 | -59.04556 | 9467 ft | 274 kts | 26° |
| 2026-05-06 04:05 | -35.00030 | -59.03506 | 9194 ft | 273 kts | 26° |
| 2026-05-06 04:06 | -34.98337 | -59.02460 | 8922 ft | 272 kts | 26° |
| 2026-05-06 04:06 | -34.96645 | -59.01415 | 8614 ft | 273 kts | 26° |
| 2026-05-06 04:06 | -34.94953 | -59.00371 | 8347 ft | 272 kts | 26° |
| 2026-05-06 04:06 | -34.93271 | -58.99334 | 8109 ft | 270 kts | 27° |
| 2026-05-06 04:07 | -34.91602 | -58.98306 | 7873 ft | 268 kts | 27° |
| 2026-05-06 04:07 | -34.89930 | -58.97298 | 7592 ft | 268 kts | 25° |
| 2026-05-06 04:07 | -34.88228 | -58.96365 | 7315 ft | 269 kts | 24° |
| 2026-05-06 04:07 | -34.86527 | -58.95452 | 7095 ft | 266 kts | 22° |
| 2026-05-06 04:08 | -34.84817 | -58.94531 | 6759 ft | 269 kts | 21° |
| 2026-05-06 04:08 | -34.83104 | -58.93603 | 6516 ft | 269 kts | 21° |
| 2026-05-06 04:08 | -34.81401 | -58.92677 | 6293 ft | 267 kts | 21° |
| 2026-05-06 04:08 | -34.79715 | -58.91759 | 6139 ft | 262 kts | 21° |
| 2026-05-06 04:09 | -34.78084 | -58.90845 | 6036 ft | 256 kts | 27° |
| 2026-05-06 04:09 | -34.76833 | -58.89355 | 5900 ft | 254 kts | 61° |
| 2026-05-06 04:09 | -34.76449 | -58.87307 | 5756 ft | 251 kts | 91° |
| 2026-05-06 04:09 | -34.76675 | -58.85214 | 5536 ft | 250 kts | 101° |
| 2026-05-06 04:10 | -34.77035 | -58.83136 | 5431 ft | 243 kts | 102° |
| 2026-05-06 04:10 | -34.77384 | -58.81172 | 5202 ft | 241 kts | 102° |
| 2026-05-06 04:10 | -34.77746 | -58.79117 | 4703 ft | 248 kts | 102° |
| 2026-05-06 04:10 | -34.78104 | -58.77077 | 4210 ft | 249 kts | 101° |
| 2026-05-06 04:11 | -34.78463 | -58.75023 | 3698 ft | 244 kts | 100° |
| 2026-05-06 04:11 | -34.78806 | -58.73061 | 3175 ft | 230 kts | 100° |
| 2026-05-06 04:11 | -34.79131 | -58.71205 | 2681 ft | 218 kts | 100° |
| 2026-05-06 04:11 | -34.79436 | -58.69469 | 2369 ft | 203 kts | 100° |
| 2026-05-06 04:12 | -34.79726 | -58.67816 | 2089 ft | 189 kts | 100° |
| 2026-05-06 04:12 | -34.79990 | -58.66309 | 1833 ft | 176 kts | 99° |
| 2026-05-06 04:12 | -34.80233 | -58.64924 | 1625 ft | 162 kts | 99° |
| 2026-05-06 04:12 | -34.80457 | -58.63645 | 1401 ft | 147 kts | 99° |
| 2026-05-06 04:13 | -34.80666 | -58.62448 | 1213 ft | 143 kts | 99° |
| 2026-05-06 04:13 | -34.80873 | -58.61265 | 1036 ft | 145 kts | 98° |
| 2026-05-06 04:13 | -34.81084 | -58.60061 | 854 ft | 145 kts | 100° |
| 2026-05-06 04:13 | -34.81296 | -58.58861 | 654 ft | 144 kts | 99° |
| 2026-05-06 04:14 | -34.81497 | -58.57666 | 494 ft | 146 kts | 100° |
| 2026-05-06 04:14 | -34.81711 | -58.56455 | 304 ft | 147 kts | 101° |
| 2026-05-06 04:14 | -34.81927 | -58.55242 | 107 ft | 147 kts | 101° |
| 2026-05-06 04:14 | -34.82129 | -58.54098 | 83 ft | 121 kts | 103° |
| 2026-05-06 04:15 | -34.82276 | -58.53278 | 80 ft | 77 kts | 102° |
| 2026-05-06 04:15 | -34.82335 | -58.52937 | 82 ft | 20 kts | 95° |
| 2026-05-06 04:15 | -34.82243 | -58.52900 | 82 ft | 17 kts | 340° |
| 2026-05-06 04:15 | -34.82130 | -58.52943 | 82 ft | 17 kts | 344° |
| 2026-05-06 04:16 | -34.82019 | -58.52981 | 79 ft | 16 kts | 343° |
| 2026-05-06 04:16 | -34.81914 | -58.53019 | 82 ft | 16 kts | 344° |
| 2026-05-06 04:16 | -34.81811 | -58.53054 | 81 ft | 15 kts | 345° |
| 2026-05-06 04:16 | -34.81697 | -58.53094 | 75 ft | 23 kts | 344° |
| 2026-05-06 04:17 | -34.81510 | -58.53159 | 82 ft | 30 kts | 345° |
| 2026-05-06 04:17 | -34.81313 | -58.53230 | 83 ft | 29 kts | 343° |
| 2026-05-06 04:17 | -34.81184 | -58.53311 | 84 ft | 19 kts | 298° |
| 2026-05-06 04:17 | -34.81165 | -58.53443 | 76 ft | 9 kts | 274° |
| 2026-05-06 04:18 | -34.81158 | -58.53520 | 73 ft | 9 kts | 288° |
| 2026-05-06 04:18 | -34.81102 | -58.53552 | 73 ft | 9 kts | 348° |
| 2026-05-06 04:18 | -34.81041 | -58.53573 | 71 ft | 9 kts | 344° |
| 2026-05-06 04:18 | -34.81005 | -58.53618 | 67 ft | 9 kts | 258° |
| 2026-05-06 04:19 | -34.81022 | -58.53686 | 72 ft | 8 kts | 254° |
| 2026-05-06 04:19 | -34.81026 | -58.53705 | 74 ft | 0 kts | 253° |